Time;durP1;ratioP1;P1;durP2;ratioP2;P2;SDS_P1;SDS_P2;PMS_P1;PMS_P2;Temp;Humidity;BMP_temperature;BMP_pressure;BME280_temperature;BME280_humidity;BME280_pressure;Samples;Min_cycle;Max_cycle;Signal;HPM_P1;HPM_P2
2020/12/11 00:01:29;;;;;;;30.87;16.33;;;0.70;1.00;;;;;;4948659;28;20472;-73
2020/12/11 00:03:54;;;;;;;28.47;17.37;;;0.70;1.00;;;;;;4950660;28;20475;-73
2020/12/11 00:06:24;;;;;;;28.73;17.00;;;0.70;1.00;;;;;;4954043;28;20909;-73
2020/12/11 00:08:53;;;;;;;33.47;16.13;;;0.80;1.00;;;;;;4956823;28;20200;-73
2020/12/11 00:11:25;;;;;;;25.87;16.00;;;0.80;1.00;;;;;;4957097;28;20822;-73
2020/12/11 00:13:51;;;;;;;39.93;18.37;;;0.80;1.00;;;;;;4946129;28;20448;-72
2020/12/11 00:16:16;;;;;;;28.17;14.90;;;0.80;1.00;;;;;;4948719;28;24742;-73
2020/12/11 00:18:42;;;;;;;29.10;16.37;;;0.90;1.00;;;;;;4949343;28;20206;-73
2020/12/11 00:21:08;;;;;;;28.00;17.30;;;0.90;1.00;;;;;;4951472;28;20220;-73
2020/12/11 00:23:33;;;;;;;29.47;17.70;;;0.90;1.00;;;;;;4961996;28;20656;-73
2020/12/11 00:25:59;;;;;;;26.70;17.13;;;1.00;1.00;;;;;;4954819;28;20177;-73
2020/12/11 00:28:29;;;;;;;28.80;16.87;;;0.90;1.00;;;;;;4960140;28;20185;-73
2020/12/11 00:30:55;;;;;;;29.13;16.20;;;0.90;1.00;;;;;;4953565;28;20683;-73
2020/12/11 00:33:22;;;;;;;28.90;17.70;;;0.90;1.00;;;;;;4959722;28;20530;-73
2020/12/11 00:35:48;;;;;;;27.20;15.47;;;0.90;1.00;;;;;;4955550;28;21021;-73
2020/12/11 00:38:14;;;;;;;28.60;15.37;;;1.00;1.00;;;;;;4953960;28;20525;-73
2020/12/11 00:40:40;;;;;;;23.07;13.87;;;1.00;1.00;;;;;;4951392;28;20468;-73
2020/12/11 00:43:06;;;;;;;25.87;16.27;;;1.00;1.00;;;;;;4946262;28;20185;-73
2020/12/11 00:45:32;;;;;;;30.57;16.97;;;1.00;1.00;;;;;;4967252;28;20795;-73
2020/12/11 00:47:58;;;;;;;29.73;14.90;;;1.00;1.00;;;;;;4956446;28;20328;-73
2020/12/11 00:50:24;;;;;;;26.67;14.40;;;1.00;1.00;;;;;;4952975;28;22306;-73
2020/12/11 00:52:50;;;;;;;27.27;16.67;;;1.10;1.00;;;;;;4948145;28;20184;-73
2020/12/11 00:55:16;;;;;;;27.73;16.37;;;1.00;1.00;;;;;;4949190;28;20547;-73
2020/12/11 00:57:44;;;;;;;26.00;17.17;;;1.10;1.00;;;;;;4955288;28;20197;-74
2020/12/11 01:00:17;;;;;;;29.43;16.07;;;1.10;1.00;;;;;;4952314;28;20854;-73
2020/12/11 01:02:43;;;;;;;33.17;16.43;;;1.00;1.00;;;;;;4958580;28;20460;-73
2020/12/11 01:05:09;;;;;;;27.20;15.00;;;1.10;1.00;;;;;;4958561;28;20832;-73
2020/12/11 01:07:35;;;;;;;26.00;16.03;;;1.10;1.00;;;;;;4954838;28;20534;-74
2020/12/11 01:10:01;;;;;;;27.00;15.57;;;1.10;1.00;;;;;;4950860;28;20197;-73
2020/12/11 01:12:27;;;;;;;26.83;16.07;;;1.10;1.00;;;;;;4945681;28;20197;-73
2020/12/11 01:14:52;;;;;;;23.07;15.30;;;1.10;1.00;;;;;;4942877;28;21770;-74
2020/12/11 01:17:19;;;;;;;28.80;16.57;;;1.10;1.00;;;;;;4958426;28;20209;-73
2020/12/11 01:19:44;;;;;;;27.47;16.57;;;1.20;1.00;;;;;;4950926;28;25358;-73
2020/12/11 01:22:11;;;;;;;31.40;17.40;;;1.10;1.00;;;;;;4953854;28;20653;-73
2020/12/11 01:24:37;;;;;;;28.67;17.87;;;1.10;1.00;;;;;;4950659;28;20308;-74
2020/12/11 01:27:03;;;;;;;27.00;15.40;;;1.10;1.00;;;;;;4948518;28;20767;-73
2020/12/11 01:29:29;;;;;;;30.00;16.40;;;1.10;1.00;;;;;;4947536;28;21034;-73
2020/12/11 01:31:58;;;;;;;24.03;14.30;;;1.10;1.00;;;;;;4957562;28;20213;-73
2020/12/11 01:34:25;;;;;;;24.70;16.40;;;1.10;1.00;;;;;;4955143;28;20314;-73
2020/12/11 01:36:51;;;;;;;27.07;16.70;;;1.10;1.00;;;;;;4948025;28;20456;-73
2020/12/11 01:39:16;;;;;;;27.20;17.93;;;1.20;1.00;;;;;;4957186;28;20463;-73
2020/12/11 01:41:42;;;;;;;28.73;18.60;;;1.20;1.00;;;;;;4956033;28;20738;-73
2020/12/11 01:44:09;;;;;;;24.77;17.47;;;1.20;1.00;;;;;;4953914;28;20205;-74
2020/12/11 01:46:38;;;;;;;27.80;17.30;;;1.20;1.00;;;;;;4955821;28;20479;-74
2020/12/11 01:49:05;;;;;;;28.77;14.97;;;1.20;1.00;;;;;;4952272;28;20503;-73
2020/12/11 01:51:32;;;;;;;27.20;16.50;;;1.20;1.00;;;;;;4958288;28;20506;-74
2020/12/11 01:53:59;;;;;;;31.00;18.53;;;1.20;1.00;;;;;;4963372;28;20456;-74
2020/12/11 01:56:29;;;;;;;29.57;17.97;;;1.20;1.00;;;;;;4958125;28;21070;-74
2020/12/11 01:59:01;;;;;;;34.57;17.70;;;1.30;1.00;;;;;;4951823;28;21218;-73
2020/12/11 02:01:29;;;;;;;26.50;17.40;;;1.20;1.00;;;;;;4948927;28;20534;-74
2020/12/11 02:03:54;;;;;;;28.93;18.10;;;1.20;1.00;;;;;;4957258;28;20863;-74
2020/12/11 02:06:20;;;;;;;27.27;16.17;;;1.20;1.00;;;;;;4957079;28;20675;-73
2020/12/11 02:08:47;;;;;;;26.10;16.67;;;1.30;1.00;;;;;;4937900;28;561028;-74
2020/12/11 02:11:20;;;;;;;30.27;17.10;;;1.30;1.00;;;;;;4947518;28;20201;-74
2020/12/11 02:13:46;;;;;;;30.13;16.80;;;1.30;1.00;;;;;;4948065;28;20793;-74
2020/12/11 02:16:12;;;;;;;27.40;17.10;;;1.30;1.00;;;;;;4948610;28;20472;-74
2020/12/11 02:18:41;;;;;;;29.30;17.70;;;1.30;1.00;;;;;;4952323;28;21273;-74
2020/12/11 02:21:08;;;;;;;31.83;18.00;;;1.30;1.00;;;;;;4955153;28;20476;-74
2020/12/11 02:23:33;;;;;;;26.63;17.10;;;1.30;1.00;;;;;;4949771;28;20982;-74
2020/12/11 02:25:59;;;;;;;28.90;16.40;;;1.40;1.00;;;;;;4952330;28;20527;-74
2020/12/11 02:28:36;;;;;;;30.20;17.37;;;1.30;1.00;;;;;;4956565;28;20236;-74
2020/12/11 02:31:02;;;;;;;34.70;19.50;;;1.30;1.00;;;;;;4951355;28;20451;-74
2020/12/11 02:33:28;;;;;;;30.50;19.47;;;1.40;1.00;;;;;;4953912;28;20544;-75
2020/12/11 02:35:54;;;;;;;28.40;16.23;;;1.40;1.00;;;;;;4946757;28;20454;-74
2020/12/11 02:38:20;;;;;;;27.83;17.30;;;1.30;1.00;;;;;;4950836;28;20443;-74
2020/12/11 02:40:51;;;;;;;27.37;18.10;;;1.40;1.00;;;;;;4955967;28;21040;-74
2020/12/11 02:43:17;;;;;;;28.80;17.10;;;1.40;1.00;;;;;;4957410;28;20185;-75
2020/12/11 02:45:47;;;;;;;31.07;18.03;;;1.30;1.00;;;;;;4953653;28;21092;-75
2020/12/11 02:48:13;;;;;;;35.07;20.27;;;1.30;1.00;;;;;;4949353;28;20469;-74
2020/12/11 02:50:39;;;;;;;32.97;18.13;;;1.30;1.00;;;;;;4950080;28;20522;-74
2020/12/11 02:53:06;;;;;;;32.10;18.20;;;1.30;1.00;;;;;;4946416;28;20448;-74
2020/12/11 02:55:33;;;;;;;27.50;18.13;;;1.30;1.00;;;;;;4946814;28;20651;-74
2020/12/11 02:57:58;;;;;;;29.37;17.40;;;1.40;1.00;;;;;;4944946;28;20456;-74
2020/12/11 03:00:24;;;;;;;28.57;16.07;;;1.40;1.00;;;;;;4948147;28;20472;-74
2020/12/11 03:02:50;;;;;;;27.37;15.57;;;1.40;1.00;;;;;;4950292;28;20218;-74
2020/12/11 03:05:15;;;;;;;28.97;17.80;;;1.40;1.00;;;;;;4947265;28;20205;-74
2020/12/11 03:07:41;;;;;;;25.13;15.20;;;1.40;1.00;;;;;;4945183;28;20189;-74
2020/12/11 03:10:07;;;;;;;26.77;16.03;;;1.40;1.00;;;;;;4943819;28;21513;-74
2020/12/11 03:12:33;;;;;;;26.13;16.10;;;1.30;1.00;;;;;;4946810;28;20186;-74
2020/12/11 03:14:58;;;;;;;24.00;16.17;;;1.30;1.00;;;;;;4948094;28;20456;-74
2020/12/11 03:17:24;;;;;;;28.20;16.43;;;1.30;1.00;;;;;;4955221;28;20538;-74
2020/12/11 03:19:50;;;;;;;29.53;15.77;;;1.20;1.00;;;;;;4957512;28;20256;-75
2020/12/11 03:22:16;;;;;;;26.33;16.40;;;1.20;1.00;;;;;;4949182;28;20667;-74
2020/12/11 03:24:42;;;;;;;29.70;16.97;;;1.20;1.00;;;;;;4947995;28;20591;-74
2020/12/11 03:27:08;;;;;;;28.17;16.70;;;1.20;1.00;;;;;;4946247;28;20453;-75
2020/12/11 03:29:33;;;;;;;27.97;16.33;;;1.30;1.00;;;;;;4946577;28;20182;-75
2020/12/11 03:31:59;;;;;;;23.47;14.13;;;1.20;1.00;;;;;;4949863;28;20544;-74
2020/12/11 03:34:25;;;;;;;25.90;15.93;;;1.20;1.00;;;;;;4949891;28;20197;-74
2020/12/11 03:36:50;;;;;;;26.07;15.17;;;1.20;1.00;;;;;;4942918;28;20217;-74
2020/12/11 03:39:16;;;;;;;21.87;15.50;;;1.20;1.00;;;;;;4946849;28;20646;-74
2020/12/11 03:41:43;;;;;;;15.63;11.97;;;1.10;1.00;;;;;;4951725;28;20205;-74
2020/12/11 03:44:09;;;;;;;23.23;14.17;;;1.10;1.00;;;;;;4957116;28;20467;-74
2020/12/11 03:46:35;;;;;;;24.10;16.13;;;1.20;1.00;;;;;;4955497;28;20472;-74
2020/12/11 03:49:01;;;;;;;20.97;14.73;;;1.10;1.00;;;;;;4952635;28;20456;-74
2020/12/11 03:51:26;;;;;;;21.23;14.50;;;1.10;1.00;;;;;;4945249;28;20539;-74
2020/12/11 03:53:52;;;;;;;20.80;13.97;;;1.20;1.00;;;;;;4945465;28;20304;-74
2020/12/11 03:56:18;;;;;;;21.57;13.53;;;1.20;1.00;;;;;;4958778;28;20892;-74
2020/12/11 03:58:45;;;;;;;23.03;13.97;;;1.20;1.00;;;;;;4956725;28;20185;-74
2020/12/11 04:01:12;;;;;;;22.43;12.90;;;1.20;1.00;;;;;;4947386;28;20571;-74
2020/12/11 04:03:38;;;;;;;22.50;14.60;;;1.20;1.00;;;;;;4946627;28;20869;-74
2020/12/11 04:06:11;;;;;;;16.93;11.80;;;1.20;1.00;;;;;;4954072;28;20453;-74
2020/12/11 04:08:38;;;;;;;22.40;12.00;;;1.20;1.00;;;;;;4952522;28;20461;-73
2020/12/11 04:11:05;;;;;;;20.63;12.40;;;1.20;1.00;;;;;;4945991;28;21757;-74
2020/12/11 04:13:31;;;;;;;19.33;12.33;;;1.20;1.00;;;;;;4944771;28;20452;-73
2020/12/11 04:15:57;;;;;;;22.27;15.13;;;1.30;1.00;;;;;;4949820;28;20457;-74
2020/12/11 04:18:22;;;;;;;19.57;13.30;;;1.30;1.00;;;;;;4956603;28;20469;-74
2020/12/11 04:20:48;;;;;;;22.83;13.97;;;1.30;1.00;;;;;;4954058;28;20224;-75
2020/12/11 04:23:14;;;;;;;20.33;11.57;;;1.40;1.00;;;;;;4950996;28;20182;-74
2020/12/11 04:25:40;;;;;;;17.40;12.00;;;1.40;1.00;;;;;;4950077;28;20508;-75
2020/12/11 04:28:05;;;;;;;23.60;14.70;;;1.40;1.00;;;;;;4956663;28;20607;-75
2020/12/11 04:30:31;;;;;;;17.83;12.90;;;1.40;1.00;;;;;;4963284;28;20288;-74
2020/12/11 04:32:57;;;;;;;18.90;12.17;;;1.40;1.00;;;;;;4953875;28;20220;-75
2020/12/11 04:35:22;;;;;;;18.37;12.23;;;1.40;1.00;;;;;;4951513;28;20193;-75
2020/12/11 04:37:48;;;;;;;20.43;12.07;;;1.40;1.00;;;;;;4954638;28;20200;-74
2020/12/11 04:40:17;;;;;;;18.20;11.83;;;1.40;1.00;;;;;;4956374;28;20220;-74
2020/12/11 04:42:46;;;;;;;20.70;13.53;;;1.50;1.00;;;;;;4953219;28;20389;-75
2020/12/11 04:45:13;;;;;;;16.73;10.87;;;1.50;1.00;;;;;;4955529;28;20524;-74
2020/12/11 04:47:43;;;;;;;23.00;12.70;;;1.50;1.00;;;;;;4957532;28;20505;-74
2020/12/11 04:50:16;;;;;;;23.43;12.73;;;1.50;1.00;;;;;;4952995;28;20452;-74
2020/12/11 04:52:47;;;;;;;13.10;10.30;;;1.60;1.00;;;;;;4953577;28;20834;-75
2020/12/11 04:55:15;;;;;;;15.90;11.63;;;1.60;1.00;;;;;;4958023;28;20445;-75
2020/12/11 04:57:51;;;;;;;21.10;14.00;;;1.60;1.00;;;;;;4955888;28;20462;-75
2020/12/11 05:00:20;;;;;;;16.33;11.60;;;1.70;1.00;;;;;;4952150;28;20546;-74
2020/12/11 05:02:47;;;;;;;17.57;12.30;;;1.70;1.00;;;;;;4953767;28;20460;-74
2020/12/11 05:05:17;;;;;;;21.97;13.07;;;1.70;1.00;;;;;;4958147;28;20444;-74
2020/12/11 05:07:44;;;;;;;19.50;11.73;;;1.70;1.00;;;;;;4952928;28;20533;-74
2020/12/11 05:10:11;;;;;;;21.80;11.73;;;1.70;1.00;;;;;;4959908;28;20467;-74
2020/12/11 05:12:37;;;;;;;18.40;11.80;;;1.70;1.00;;;;;;4959172;28;20452;-75
2020/12/11 05:15:12;;;;;;;18.90;12.53;;;1.70;1.00;;;;;;4955896;28;20468;-73
2020/12/11 05:17:42;;;;;;;24.40;13.67;;;1.60;1.00;;;;;;4954514;28;20473;-75
2020/12/11 05:20:10;;;;;;;17.33;10.90;;;1.50;1.00;;;;;;4956575;28;20834;-74
2020/12/11 05:22:42;;;;;;;18.50;11.67;;;1.50;1.00;;;;;;4950119;28;20448;-74
2020/12/11 05:25:16;;;;;;;19.10;13.10;;;1.60;1.00;;;;;;4955167;28;20813;-74
2020/12/11 05:27:42;;;;;;;16.97;11.47;;;1.60;1.00;;;;;;4955135;28;20449;-74
2020/12/11 05:30:14;;;;;;;17.17;11.67;;;1.70;1.00;;;;;;4956876;28;20936;-75
2020/12/11 05:32:40;;;;;;;17.07;11.20;;;1.70;1.00;;;;;;4953856;28;20474;-74
2020/12/11 05:35:18;;;;;;;19.20;13.83;;;1.70;1.00;;;;;;4954719;28;21236;-74
2020/12/11 05:37:50;;;;;;;19.93;13.30;;;1.70;1.00;;;;;;4966738;28;20511;-74
2020/12/11 05:40:21;;;;;;;19.20;11.47;;;1.60;1.00;;;;;;4952715;28;20486;-74
2020/12/11 05:43:08;;;;;;;19.87;12.90;;;1.60;1.00;;;;;;4954692;28;20899;-74
2020/12/11 05:45:36;;;;;;;20.90;13.30;;;1.60;1.00;;;;;;4960104;28;20918;-74
2020/12/11 05:48:04;;;;;;;16.10;11.50;;;1.50;1.00;;;;;;4956245;28;20603;-74
2020/12/11 05:50:30;;;;;;;19.40;11.83;;;1.60;1.00;;;;;;4949931;28;20531;-74
2020/12/11 05:52:56;;;;;;;19.67;12.80;;;1.60;1.00;;;;;;4939762;28;24813;-74
2020/12/11 05:55:23;;;;;;;19.77;11.60;;;1.50;1.00;;;;;;4950243;28;20897;-74
2020/12/11 05:57:56;;;;;;;17.23;11.50;;;1.50;1.00;;;;;;4956048;28;20282;-74
2020/12/11 06:00:22;;;;;;;18.03;13.07;;;1.50;1.00;;;;;;4952486;28;20752;-74
2020/12/11 06:02:49;;;;;;;18.00;12.00;;;1.60;1.00;;;;;;4949102;28;20976;-74
2020/12/11 06:05:20;;;;;;;14.13;9.87;;;1.50;1.00;;;;;;4951444;28;20449;-74
2020/12/11 06:07:47;;;;;;;18.03;12.50;;;1.60;1.00;;;;;;4958323;28;20448;-74
2020/12/11 06:10:14;;;;;;;17.77;11.60;;;1.70;1.00;;;;;;4955294;28;20452;-74
2020/12/11 06:12:41;;;;;;;14.57;10.93;;;1.60;1.00;;;;;;4957757;28;20506;-74
2020/12/11 06:15:34;;;;;;;22.17;13.07;;;1.70;1.00;;;;;;4956495;28;20918;-75
2020/12/11 06:18:16;;;;;;;19.20;12.53;;;1.70;1.00;;;;;;4960879;28;20562;-74
2020/12/11 06:20:45;;;;;;;21.60;13.37;;;1.70;1.00;;;;;;4957141;28;20474;-75
2020/12/11 06:23:25;;;;;;;17.33;12.13;;;1.70;1.00;;;;;;4950380;28;21190;-74
2020/12/11 06:26:01;;;;;;;20.20;13.27;;;1.70;1.00;;;;;;4953913;28;20497;-74
2020/12/11 06:28:41;;;;;;;21.33;13.83;;;1.70;1.00;;;;;;4953335;28;21072;-75
2020/12/11 06:31:18;;;;;;;15.30;11.47;;;1.70;1.00;;;;;;4955779;28;20543;-74
2020/12/11 06:33:52;;;;;;;20.87;13.03;;;1.80;1.00;;;;;;4952938;28;20471;-74
2020/12/11 06:36:18;;;;;;;20.50;12.90;;;1.80;1.00;;;;;;4956705;28;20809;-75
2020/12/11 06:38:51;;;;;;;20.53;13.80;;;1.70;1.00;;;;;;4958795;28;20455;-74
2020/12/11 06:41:32;;;;;;;18.80;12.50;;;1.80;1.00;;;;;;4956317;28;20460;-74
2020/12/11 06:44:18;;;;;;;17.20;12.87;;;1.80;1.00;;;;;;4947701;28;20544;-75
2020/12/11 06:47:03;;;;;;;17.53;10.80;;;1.80;1.00;;;;;;4958632;28;20467;-74
2020/12/11 06:49:28;;;;;;;17.13;11.93;;;1.90;1.00;;;;;;4960784;28;20871;-74
2020/12/11 06:51:54;;;;;;;21.60;13.47;;;1.90;1.00;;;;;;4961625;28;20446;-74
2020/12/11 06:54:19;;;;;;;18.33;12.20;;;1.90;1.00;;;;;;4954418;28;20741;-76
2020/12/11 06:56:47;;;;;;;20.57;12.53;;;1.90;1.00;;;;;;4948413;28;20212;-77
2020/12/11 06:59:22;;;;;;;16.03;11.47;;;1.90;1.00;;;;;;4946234;28;20594;-74
2020/12/11 07:02:15;;;;;;;21.90;12.47;;;1.90;1.00;;;;;;4957268;28;21000;-74
2020/12/11 07:04:41;;;;;;;17.83;12.37;;;1.90;1.00;;;;;;4957839;28;20584;-75
2020/12/11 07:07:08;;;;;;;17.13;12.37;;;1.90;1.00;;;;;;4946149;28;20514;-74
2020/12/11 07:09:47;;;;;;;15.07;11.73;;;1.90;1.00;;;;;;4956430;28;20486;-74
2020/12/11 07:12:17;;;;;;;15.83;9.70;;;2.00;1.00;;;;;;4943148;28;20522;-74
2020/12/11 07:14:44;;;;;;;16.03;11.83;;;2.00;1.00;;;;;;4952108;28;20989;-74
2020/12/11 07:17:10;;;;;;;17.43;11.00;;;2.00;1.00;;;;;;4957856;28;20457;-75
2020/12/11 07:19:37;;;;;;;15.77;10.67;;;2.10;1.00;;;;;;4948038;28;20540;-75
2020/12/11 07:22:03;;;;;;;19.40;12.20;;;2.10;1.00;;;;;;4958111;28;20217;-74
2020/12/11 07:24:31;;;;;;;14.07;10.23;;;2.10;1.00;;;;;;4949536;28;20975;-75
2020/12/11 07:27:15;;;;;;;16.90;11.83;;;2.20;1.00;;;;;;4958602;28;20469;-75
2020/12/11 07:29:53;;;;;;;16.70;11.90;;;2.20;1.00;;;;;;4959717;28;20456;-74
2020/12/11 07:32:19;;;;;;;14.97;11.07;;;2.20;1.00;;;;;;4953217;28;20469;-74
2020/12/11 07:34:45;;;;;;;14.40;10.87;;;2.20;1.00;;;;;;4951427;28;20934;-74
2020/12/11 07:37:11;;;;;;;16.90;11.60;;;2.10;1.00;;;;;;4952501;28;20506;-74
2020/12/11 07:39:37;;;;;;;13.93;10.03;;;2.20;1.00;;;;;;4957955;28;21135;-74
2020/12/11 07:42:04;;;;;;;13.50;10.37;;;2.20;1.00;;;;;;4956332;28;20480;-74
2020/12/11 07:44:35;;;;;;;16.77;11.90;;;2.20;1.00;;;;;;4955509;28;20284;-74
2020/12/11 07:47:07;;;;;;;18.77;12.70;;;2.20;1.00;;;;;;4961270;28;20507;-75
2020/12/11 07:49:37;;;;;;;14.10;10.33;;;2.20;1.00;;;;;;4960045;28;20464;-74
2020/12/11 07:52:03;;;;;;;16.10;10.67;;;2.30;1.00;;;;;;4954625;28;20449;-75
2020/12/11 07:54:42;;;;;;;18.50;12.23;;;2.30;1.00;;;;;;4952759;28;20448;-74
2020/12/11 07:57:13;;;;;;;17.07;12.93;;;2.30;1.00;;;;;;4950244;28;20451;-75
2020/12/11 07:59:39;;;;;;;15.50;12.90;;;2.30;1.00;;;;;;4951733;28;20954;-75
2020/12/11 08:02:05;;;;;;;19.67;11.43;;;2.30;1.00;;;;;;4956202;28;21954;-75
2020/12/11 08:04:35;;;;;;;14.07;9.57;;;2.30;1.00;;;;;;4958335;28;20456;-75
2020/12/11 08:07:01;;;;;;;17.77;12.13;;;2.30;1.00;;;;;;4950905;28;20798;-75
2020/12/11 08:09:34;;;;;;;16.23;11.20;;;2.30;1.00;;;;;;4949347;28;20456;-75
2020/12/11 08:12:16;;;;;;;16.17;11.73;;;2.30;1.00;;;;;;4949294;28;20444;-75
2020/12/11 08:14:42;;;;;;;16.47;11.77;;;2.30;1.00;;;;;;4957330;28;20451;-74
2020/12/11 08:17:10;;;;;;;20.10;11.67;;;2.40;1.00;;;;;;4957262;28;20449;-75
2020/12/11 08:19:35;;;;;;;15.80;11.73;;;2.40;1.00;;;;;;4960008;28;21110;-75
2020/12/11 08:22:15;;;;;;;16.70;10.97;;;2.50;1.00;;;;;;4951636;28;20487;-75
2020/12/11 08:24:42;;;;;;;14.73;11.07;;;2.50;1.00;;;;;;4952086;28;20453;-75
2020/12/11 08:27:21;;;;;;;18.90;12.10;;;2.60;1.00;;;;;;4955276;28;20575;-75
2020/12/11 08:30:07;;;;;;;14.73;9.80;;;2.60;1.00;;;;;;4956244;28;20984;-74
2020/12/11 08:32:33;;;;;;;20.57;11.37;;;2.60;1.00;;;;;;4956865;28;20488;-75
2020/12/11 08:34:59;;;;;;;15.93;10.20;;;2.60;1.00;;;;;;4950802;28;20491;-75
2020/12/11 08:37:25;;;;;;;15.60;10.03;;;2.70;1.00;;;;;;4954655;28;20770;-75
2020/12/11 08:40:03;;;;;;;13.50;10.07;;;2.70;1.00;;;;;;4958335;28;20595;-75
2020/12/11 08:42:32;;;;;;;16.20;10.63;;;2.80;1.00;;;;;;4959691;28;20204;-75
2020/12/11 08:52:46;;;;;;;14.30;9.13;;;2.70;1.00;;;;;;4960737;28;20883;-74
2020/12/11 08:55:12;;;;;;;13.40;10.07;;;2.70;1.00;;;;;;4958615;28;20474;-75
2020/12/11 08:57:38;;;;;;;13.00;9.53;;;2.70;1.00;;;;;;4966239;28;20406;-74
2020/12/11 09:00:05;;;;;;;13.00;10.27;;;2.70;1.00;;;;;;4958714;28;20577;-75
2020/12/11 09:02:31;;;;;;;13.87;10.67;;;2.70;1.00;;;;;;4948326;28;20878;-75
2020/12/11 09:04:57;;;;;;;16.40;9.57;;;2.70;1.00;;;;;;4958270;28;20730;-75
2020/12/11 09:07:24;;;;;;;15.20;10.33;;;2.80;1.00;;;;;;4947502;28;20186;-75
2020/12/11 09:09:51;;;;;;;11.40;9.27;;;2.80;1.00;;;;;;4948426;28;20622;-75
2020/12/11 09:12:17;;;;;;;14.93;10.07;;;2.90;1.00;;;;;;4948279;28;20795;-75
2020/12/11 09:14:43;;;;;;;14.17;9.77;;;2.90;1.00;;;;;;4946119;28;20458;-74
2020/12/11 09:17:08;;;;;;;14.20;10.23;;;2.90;1.00;;;;;;4948871;28;20686;-75
2020/12/11 09:19:34;;;;;;;12.93;10.00;;;3.00;1.00;;;;;;4956757;28;20639;-75
2020/12/11 09:22:01;;;;;;;13.20;9.57;;;3.00;1.00;;;;;;4960364;28;20458;-75
2020/12/11 09:24:28;;;;;;;10.77;9.00;;;3.00;1.00;;;;;;4962735;28;20444;-74
2020/12/11 09:26:54;;;;;;;11.77;8.17;;;3.10;1.00;;;;;;4954393;28;20843;-75
2020/12/11 09:29:34;;;;;;;11.70;8.90;;;3.10;1.00;;;;;;4951757;28;20519;-75
2020/12/11 09:32:02;;;;;;;13.97;9.83;;;3.10;1.00;;;;;;4957714;28;20439;-74
2020/12/11 09:34:32;;;;;;;11.83;8.53;;;3.10;1.00;;;;;;4960975;28;20994;-75
2020/12/11 09:37:02;;;;;;;13.00;9.63;;;3.10;1.00;;;;;;4958014;28;20467;-75
2020/12/11 09:39:28;;;;;;;13.33;9.70;;;3.20;1.00;;;;;;4958972;28;20990;-74
2020/12/11 09:42:53;;;;;;;13.40;9.03;;;3.20;1.00;;;;;;4958331;28;20827;-74
2020/12/11 09:44:49;;;;;;;11.67;8.37;;;3.20;1.00;;;;;;4957075;28;20480;-73
2020/12/11 09:50:24;;;;;;;10.80;8.27;;;3.30;1.00;;;;;;4953321;28;20468;-73
2020/12/11 09:55:15;;;;;;;15.00;9.70;;;3.40;1.00;;;;;;4974759;28;21139;-73
2020/12/11 09:57:41;;;;;;;13.97;9.40;;;3.40;1.00;;;;;;4958177;28;20449;-72
2020/12/11 10:00:07;;;;;;;13.10;8.23;;;3.50;1.00;;;;;;4959276;28;20825;-73
2020/12/11 10:05:20;;;;;;;14.43;9.97;;;3.60;1.00;;;;;;4960144;28;20458;-73
2020/12/11 10:07:45;;;;;;;12.10;8.70;;;3.60;1.00;;;;;;4976545;28;20449;-73
2020/12/11 10:10:11;;;;;;;12.07;8.27;;;3.50;1.00;;;;;;4955857;28;20284;-73
2020/12/11 10:12:37;;;;;;;13.10;9.43;;;3.50;1.00;;;;;;4953573;28;20208;-73
2020/12/11 10:15:11;;;;;;;13.60;9.80;;;3.50;1.00;;;;;;4948363;28;20656;-73
2020/12/11 10:17:38;;;;;;;10.40;7.70;;;3.50;1.00;;;;;;4953823;28;20238;-73
2020/12/11 10:20:05;;;;;;;12.73;10.43;;;3.50;1.00;;;;;;4959437;28;20440;-73
2020/12/11 10:22:32;;;;;;;13.10;9.30;;;3.60;1.00;;;;;;4958570;28;20452;-73
2020/12/11 10:24:58;;;;;;;14.03;9.33;;;3.60;1.00;;;;;;4946547;28;20506;-73
2020/12/11 10:27:24;;;;;;;13.37;8.07;;;3.60;1.00;;;;;;4956043;28;20930;-74
2020/12/11 10:29:49;;;;;;;11.80;8.57;;;3.60;1.00;;;;;;4951790;28;20467;-73
2020/12/11 10:32:15;;;;;;;13.07;7.70;;;3.60;1.00;;;;;;4949107;28;21752;-73
2020/12/11 10:34:40;;;;;;;14.90;8.33;;;3.70;1.00;;;;;;4953158;28;20655;-73
2020/12/11 10:37:13;;;;;;;15.03;9.50;;;3.70;1.00;;;;;;4945575;28;21019;-74
2020/12/11 10:39:40;;;;;;;14.70;8.60;;;3.70;1.00;;;;;;4955464;28;20229;-74
2020/12/11 10:42:06;;;;;;;13.10;8.70;;;3.80;1.00;;;;;;4955498;28;20554;-73
2020/12/11 10:44:32;;;;;;;13.23;8.70;;;3.80;1.00;;;;;;4958213;28;20533;-73
2020/12/11 10:46:58;;;;;;;13.87;8.33;;;3.90;1.00;;;;;;4953471;28;20448;-73
2020/12/11 10:49:25;;;;;;;14.53;9.20;;;3.80;1.00;;;;;;4953024;28;20687;-74
2020/12/11 10:51:51;;;;;;;12.13;8.60;;;3.80;1.00;;;;;;4956729;28;20969;-74
2020/12/11 10:54:18;;;;;;;20.07;9.67;;;3.90;1.00;;;;;;4959556;28;20765;-74
2020/12/11 10:56:46;;;;;;;12.90;8.63;;;3.90;1.00;;;;;;4950381;28;20452;-73
2020/12/11 10:59:13;;;;;;;13.03;9.37;;;3.90;1.00;;;;;;4950675;28;20610;-73
2020/12/11 11:01:40;;;;;;;14.00;8.37;;;3.90;1.00;;;;;;4955701;28;20570;-73
2020/12/11 11:04:07;;;;;;;11.33;8.23;;;3.90;1.00;;;;;;4951463;28;20469;-73
2020/12/11 11:06:40;;;;;;;11.43;8.67;;;3.90;1.00;;;;;;4949198;28;20919;-76
2020/12/11 11:11:37;;;;;;;10.73;7.30;;;4.00;1.00;;;;;;4959451;28;20530;-76
2020/12/11 11:17:01;;;;;;;12.53;7.97;;;4.10;1.00;;;;;;4950917;28;20463;-74
2020/12/11 11:19:45;;;;;;;12.50;8.20;;;4.20;1.00;;;;;;4951062;28;20483;-73
2020/12/11 11:22:35;;;;;;;13.10;8.30;;;4.30;1.00;;;;;;4951206;28;20480;-74
2020/12/11 11:27:37;;;;;;;12.87;7.80;;;4.30;1.00;;;;;;4953843;28;21088;-74
2020/12/11 11:30:03;;;;;;;11.90;8.10;;;4.40;1.00;;;;;;4954644;28;20841;-74
2020/12/11 11:32:29;;;;;;;11.50;8.03;;;4.40;1.00;;;;;;4955619;28;20464;-74
2020/12/11 11:34:55;;;;;;;14.87;10.07;;;4.40;1.00;;;;;;4958355;28;20460;-74
2020/12/11 11:37:21;;;;;;;12.97;9.10;;;4.30;1.00;;;;;;4955378;28;21018;-74
2020/12/11 11:39:48;;;;;;;9.63;7.20;;;4.40;1.00;;;;;;4958277;28;20178;-75
2020/12/11 11:42:14;;;;;;;11.33;7.87;;;4.40;1.00;;;;;;4952781;28;20974;-74
2020/12/11 11:45:25;;;;;;;10.30;8.00;;;4.40;1.00;;;;;;4958385;28;20486;-74
2020/12/11 11:47:29;;;;;;;11.70;7.80;;;4.40;1.00;;;;;;4947025;28;20201;-74
2020/12/11 11:52:33;;;;;;;12.57;8.00;;;4.50;1.00;;;;;;4949173;28;20776;-74
2020/12/11 11:54:59;;;;;;;12.33;7.90;;;4.40;1.00;;;;;;4947430;28;20879;-75
2020/12/11 11:57:26;;;;;;;11.47;7.53;;;4.50;1.00;;;;;;4948902;28;20477;-74
2020/12/11 11:59:52;;;;;;;10.40;6.83;;;4.40;1.00;;;;;;4950070;28;20601;-75
2020/12/11 12:02:17;;;;;;;11.27;7.73;;;4.40;1.00;;;;;;4944835;28;20488;-75
2020/12/11 12:04:43;;;;;;;9.50;7.60;;;4.50;1.00;;;;;;4949109;28;20743;-74
2020/12/11 12:07:09;;;;;;;9.10;6.57;;;4.40;1.00;;;;;;4947323;28;20193;-74
2020/12/11 12:09:35;;;;;;;13.17;7.40;;;4.40;1.00;;;;;;4957306;28;20204;-75
2020/12/11 12:12:00;;;;;;;10.80;7.53;;;4.40;1.00;;;;;;4959102;28;20192;-74
2020/12/11 12:14:26;;;;;;;15.03;7.30;;;4.40;1.00;;;;;;4959139;28;20201;-74
2020/12/11 12:16:58;;;;;;;14.77;8.80;;;4.40;1.00;;;;;;4951458;28;20192;-74
2020/12/11 12:19:36;;;;;;;12.83;7.87;;;4.30;1.00;;;;;;4952756;28;20483;-74
2020/12/11 12:29:56;;;;;;;12.97;7.53;;;4.20;1.00;;;;;;4954044;28;20797;-74
2020/12/11 12:32:25;;;;;;;12.13;8.43;;;4.20;1.00;;;;;;4951375;28;20498;-74
2020/12/11 12:42:39;;;;;;;11.07;7.80;;;4.10;1.00;;;;;;4959430;28;20484;-74
2020/12/11 12:45:06;;;;;;;9.77;6.90;;;4.00;1.00;;;;;;4961537;28;20492;-75
2020/12/11 12:47:32;;;;;;;10.40;7.03;;;4.10;1.00;;;;;;4961132;28;20845;-74
2020/12/11 12:49:59;;;;;;;10.40;7.47;;;4.10;1.00;;;;;;4954332;28;20502;-75
2020/12/11 12:52:25;;;;;;;11.43;8.67;;;4.00;1.00;;;;;;4956018;28;20853;-74
2020/12/11 12:54:51;;;;;;;13.57;8.80;;;4.00;1.00;;;;;;4956707;28;20451;-74
2020/12/11 13:07:23;;;;;;;14.30;7.67;;;4.20;1.00;;;;;;4959414;28;20456;-75
2020/12/11 13:09:49;;;;;;;9.70;6.67;;;4.20;1.00;;;;;;4957573;28;20550;-74
2020/12/11 13:12:15;;;;;;;14.90;8.33;;;4.20;1.00;;;;;;4957910;28;20205;-74
2020/12/11 13:14:40;;;;;;;13.07;8.67;;;4.20;1.00;;;;;;4956799;28;20708;-74
2020/12/11 13:17:06;;;;;;;13.73;8.07;;;4.30;1.00;;;;;;4957098;28;20193;-74
2020/12/11 13:19:34;;;;;;;10.30;7.80;;;4.30;1.00;;;;;;4962417;28;20256;-74
2020/12/11 13:22:18;;;;;;;12.03;8.33;;;4.30;1.00;;;;;;4957936;28;20232;-75
2020/12/11 13:27:29;;;;;;;10.80;7.00;;;4.30;1.00;;;;;;4960691;28;21126;-75
2020/12/11 13:29:58;;;;;;;12.50;7.50;;;4.30;1.00;;;;;;4964763;28;20459;-75
2020/12/11 13:32:28;;;;;;;10.37;7.23;;;4.30;1.00;;;;;;4958956;28;20893;-74
2020/12/11 13:34:53;;;;;;;9.50;7.37;;;4.30;1.00;;;;;;4961127;28;20527;-74
2020/12/11 13:37:19;;;;;;;12.70;7.37;;;4.30;1.00;;;;;;4957595;28;20454;-74
2020/12/11 13:39:45;;;;;;;9.17;7.03;;;4.40;1.00;;;;;;4958913;28;20268;-75
2020/12/11 13:42:11;;;;;;;9.70;6.93;;;4.40;1.00;;;;;;4960737;28;20790;-74
2020/12/11 13:44:36;;;;;;;10.03;7.20;;;4.40;1.00;;;;;;4960932;28;20266;-75
2020/12/11 13:47:04;;;;;;;11.33;7.27;;;4.50;1.00;;;;;;4958737;28;20186;-75
2020/12/11 13:49:31;;;;;;;9.57;6.30;;;4.50;1.00;;;;;;4965687;28;20204;-74
2020/12/11 13:51:57;;;;;;;7.77;6.47;;;4.50;1.00;;;;;;4962273;28;20815;-75